createdAt,value
2019-01-17T00:00:47.581Z,99.90
2019-01-17T00:03:46.809Z,99.90
2019-01-17T00:06:43.981Z,99.90
2019-01-17T00:09:24.156Z,99.90
2019-01-17T00:12:24.475Z,99.90
2019-01-17T00:15:16.730Z,99.90
2019-01-17T00:18:06.529Z,99.90
2019-01-17T00:20:53.641Z,99.90
2019-01-17T00:23:42.089Z,99.90
2019-01-17T00:26:28.062Z,99.90
2019-01-17T00:29:16.478Z,99.90
2019-01-17T00:31:53.353Z,99.90
2019-01-17T00:34:39.737Z,99.90
2019-01-17T00:37:31.727Z,99.90
2019-01-17T00:40:29.282Z,99.90
2019-01-17T00:43:16.278Z,99.90
2019-01-17T00:46:03.457Z,99.90
2019-01-17T00:48:57.745Z,99.90
2019-01-17T00:51:44.790Z,99.90
2019-01-17T00:54:39.167Z,99.90
2019-01-17T00:57:30.278Z,99.90
2019-01-17T01:00:10.118Z,99.90
2019-01-17T01:02:57.277Z,99.90
2019-01-17T01:05:32.720Z,99.90
2019-01-17T01:08:24.700Z,99.90
2019-01-17T01:11:16.364Z,99.90
2019-01-17T01:14:04.768Z,99.90
2019-01-17T01:17:11.105Z,99.90
2019-01-17T01:19:59.488Z,99.90
2019-01-17T01:22:46.597Z,99.90
2019-01-17T01:25:42.097Z,99.90
2019-01-17T01:28:45.389Z,99.90
2019-01-17T01:31:23.646Z,99.90
2019-01-17T01:34:10.794Z,99.90
2019-01-17T01:36:57.617Z,99.90
2019-01-17T01:40:00.889Z,99.90
2019-01-17T01:42:58.725Z,99.90
2019-01-17T01:45:47.383Z,99.90
2019-01-17T01:48:38.859Z,99.90
2019-01-17T01:51:27.194Z,99.90
2019-01-17T01:53:56.622Z,99.90
2019-01-17T01:56:26.205Z,99.90
2019-01-17T01:58:55.578Z,99.90
2019-01-17T02:01:24.943Z,99.90
2019-01-17T02:03:54.699Z,99.90
2019-01-17T02:06:25.420Z,99.90
2019-01-17T02:08:54.949Z,99.90
2019-01-17T02:11:24.370Z,99.90
2019-01-17T02:13:53.983Z,99.90
2019-01-17T02:16:23.436Z,99.90
2019-01-17T02:18:53.962Z,99.90
2019-01-17T02:21:23.368Z,99.90
2019-01-17T02:23:53.026Z,99.90
2019-01-17T02:26:22.461Z,99.90
2019-01-17T02:28:52.182Z,99.90
2019-01-17T02:31:23.324Z,99.90
2019-01-17T02:33:52.703Z,99.90
2019-01-17T02:36:22.124Z,99.90
2019-01-17T02:38:51.530Z,99.90
2019-01-17T02:41:21.215Z,99.90
2019-01-17T02:43:50.624Z,99.90
2019-01-17T02:46:20.046Z,99.90
2019-01-17T02:48:49.456Z,99.90
2019-01-17T02:51:18.781Z,99.90
2019-01-17T02:53:48.287Z,99.90
2019-01-17T02:56:17.706Z,99.90
2019-01-17T02:58:47.167Z,99.90
2019-01-17T03:01:16.599Z,99.90
2019-01-17T03:03:46.043Z,99.90
2019-01-17T03:06:15.458Z,99.90
2019-01-17T03:08:44.915Z,99.90
2019-01-17T03:11:14.659Z,99.90
2019-01-17T03:13:44.102Z,99.90
2019-01-17T03:16:13.441Z,99.90
2019-01-17T03:18:42.849Z,99.90
2019-01-17T03:21:12.545Z,99.90
2019-01-17T03:23:41.926Z,99.90
2019-01-17T03:26:11.451Z,99.90
2019-01-17T03:28:40.760Z,99.90
2019-01-17T03:31:10.188Z,99.90
2019-01-17T03:33:39.572Z,99.90
2019-01-17T03:36:08.958Z,99.90
2019-01-17T03:38:38.385Z,99.90
2019-01-17T03:41:07.808Z,99.90
2019-01-17T03:43:37.234Z,99.90
2019-01-17T03:46:06.653Z,99.90
2019-01-17T03:48:36.258Z,99.90
2019-01-17T03:51:05.687Z,99.90
2019-01-17T03:53:35.444Z,99.90
2019-01-17T03:56:04.849Z,99.90
2019-01-17T03:58:34.358Z,99.90
2019-01-17T04:01:03.840Z,99.90
2019-01-17T04:03:33.573Z,99.90
2019-01-17T04:06:03.014Z,99.90
2019-01-17T04:08:32.407Z,99.90
2019-01-17T04:11:01.776Z,99.90
2019-01-17T04:13:31.235Z,99.90
2019-01-17T04:16:00.610Z,99.90
2019-01-17T04:18:29.984Z,99.90
2019-01-17T04:20:59.335Z,99.90
2019-01-17T04:23:28.752Z,99.90
2019-01-17T04:25:58.229Z,99.90
2019-01-17T04:28:27.652Z,99.90
2019-01-17T04:30:57.060Z,99.90
2019-01-17T04:33:26.644Z,99.90
2019-01-17T04:35:56.060Z,99.90
2019-01-17T04:38:25.744Z,99.90
2019-01-17T04:40:55.172Z,99.90
2019-01-17T04:43:24.626Z,99.90
2019-01-17T04:45:54.106Z,99.90
2019-01-17T04:48:23.554Z,99.90
2019-01-17T04:50:53.012Z,99.80
2019-01-17T04:53:22.428Z,99.50
2019-01-17T04:55:51.922Z,99.40
2019-01-17T04:58:21.415Z,99.20
2019-01-17T05:00:50.810Z,99.50
2019-01-17T05:03:20.295Z,99.50
2019-01-17T05:05:49.785Z,99.60
2019-01-17T05:08:19.199Z,99.40
2019-01-17T05:10:48.674Z,99.50
2019-01-17T05:13:18.137Z,99.50
2019-01-17T05:15:47.832Z,99.40
2019-01-17T05:18:17.334Z,99.40
2019-01-17T05:20:46.791Z,99.40
2019-01-17T05:23:16.681Z,99.50
2019-01-17T05:25:46.108Z,99.60
2019-01-17T05:28:15.819Z,99.30
2019-01-17T05:30:46.489Z,99.10
2019-01-17T05:33:17.479Z,99.20
2019-01-17T05:35:47.091Z,99.40
2019-01-17T05:38:16.803Z,99.50
2019-01-17T05:40:46.259Z,99.50
2019-01-17T05:43:15.698Z,99.60
2019-01-17T05:45:45.154Z,99.50
2019-01-17T05:48:14.611Z,99.60
2019-01-17T05:50:44.059Z,99.80
2019-01-17T05:53:13.465Z,99.90
2019-01-17T05:55:42.963Z,99.80
2019-01-17T05:58:14.853Z,99.90
2019-01-17T06:00:44.284Z,99.80
2019-01-17T06:03:13.730Z,99.80
2019-01-17T06:05:43.163Z,99.80
2019-01-17T06:08:12.642Z,99.70
2019-01-17T06:10:42.090Z,99.60
2019-01-17T06:13:11.632Z,99.80
2019-01-17T06:15:41.551Z,99.90
2019-01-17T06:18:10.989Z,99.90
2019-01-17T06:20:40.494Z,99.90
2019-01-17T06:23:10.223Z,99.90
2019-01-17T06:25:40.103Z,99.90
2019-01-17T06:28:09.635Z,99.90
2019-01-17T06:30:39.056Z,99.90
2019-01-17T06:33:09.833Z,99.90
2019-01-17T06:35:39.295Z,99.90
2019-01-17T06:38:09.006Z,99.90
2019-01-17T06:40:38.464Z,99.90
2019-01-17T06:43:07.817Z,99.90
2019-01-17T06:45:38.462Z,99.80
2019-01-17T06:48:07.789Z,99.70
2019-01-17T06:50:37.739Z,99.60
2019-01-17T06:53:07.377Z,99.50
2019-01-17T06:55:37.384Z,99.50
2019-01-17T06:58:07.867Z,99.40
2019-01-17T07:00:37.606Z,99.30
2019-01-17T07:03:07.970Z,99.20
2019-01-17T07:05:37.361Z,99.00
2019-01-17T07:08:07.103Z,99.10
2019-01-17T07:10:36.484Z,99.10
2019-01-17T07:13:06.963Z,99.30
2019-01-17T07:15:38.046Z,99.30
2019-01-17T07:18:07.338Z,99.50
2019-01-17T07:20:36.719Z,99.50
2019-01-17T07:23:06.253Z,99.50
2019-01-17T07:25:41.052Z,99.80
2019-01-17T07:28:08.037Z,99.80
2019-01-17T07:30:37.413Z,99.80
2019-01-17T07:33:08.731Z,99.80
2019-01-17T07:35:38.023Z,99.70
2019-01-17T07:38:08.332Z,99.80
2019-01-17T07:40:40.267Z,99.70
2019-01-17T07:43:09.545Z,99.90
2019-01-17T07:45:38.943Z,99.90
2019-01-17T07:48:08.436Z,99.80
2019-01-17T07:50:37.695Z,99.80
2019-01-17T07:53:08.818Z,99.70
2019-01-17T07:55:38.294Z,99.80
2019-01-17T07:58:07.671Z,99.90
2019-01-17T08:00:37.243Z,99.90
2019-01-17T08:03:07.404Z,99.90
2019-01-17T08:05:37.097Z,99.90
2019-01-17T08:08:06.509Z,99.90
2019-01-17T08:10:35.861Z,99.90
2019-01-17T08:13:07.094Z,99.90
2019-01-17T08:15:36.352Z,99.90
2019-01-17T08:18:07.731Z,99.90
2019-01-17T08:20:37.107Z,99.90
2019-01-17T08:23:06.408Z,99.90
2019-01-17T08:25:35.871Z,99.90
2019-01-17T08:28:05.416Z,99.90
2019-01-17T08:30:34.824Z,99.90
2019-01-17T08:33:04.684Z,99.90
2019-01-17T08:35:34.061Z,99.90
2019-01-17T08:38:03.491Z,99.90
2019-01-17T08:40:34.123Z,99.90
2019-01-17T08:43:03.665Z,99.90
2019-01-17T08:45:33.140Z,99.90
2019-01-17T08:48:03.163Z,99.90
2019-01-17T08:50:33.275Z,99.90
2019-01-17T08:53:03.066Z,99.90
2019-01-17T08:55:32.577Z,99.90
2019-01-17T08:58:02.304Z,99.90
2019-01-17T09:00:32.886Z,99.90
2019-01-17T09:03:02.595Z,99.90
2019-01-17T09:05:33.142Z,99.90
2019-01-17T09:08:02.698Z,99.90
2019-01-17T09:10:32.850Z,99.90
2019-01-17T09:13:02.286Z,99.90
2019-01-17T09:15:33.682Z,99.90
2019-01-17T09:18:03.234Z,99.60
2019-01-17T09:20:32.818Z,99.10
2019-01-17T09:23:02.638Z,98.40
2019-01-17T09:25:32.104Z,98.20
2019-01-17T09:28:01.654Z,98.00
2019-01-17T09:30:31.137Z,97.70
2019-01-17T09:33:00.634Z,98.10
2019-01-17T09:35:30.108Z,97.80
2019-01-17T09:37:59.546Z,98.20
2019-01-17T09:40:28.968Z,97.60
2019-01-17T09:42:59.270Z,97.50
2019-01-17T09:45:28.739Z,98.00
2019-01-17T09:47:58.156Z,97.70
2019-01-17T09:50:27.750Z,97.50
2019-01-17T09:52:57.641Z,97.30
2019-01-17T09:55:27.086Z,97.50
2019-01-17T09:57:58.145Z,97.20
2019-01-17T10:00:29.479Z,97.10
2019-01-17T10:02:58.943Z,96.90
2019-01-17T10:05:28.673Z,96.80
2019-01-17T10:07:58.385Z,96.80
2019-01-17T10:10:27.958Z,97.10
2019-01-17T10:12:57.352Z,96.60
2019-01-17T10:15:54.047Z,96.80
2019-01-17T10:19:01.661Z,96.90
2019-01-17T10:21:52.987Z,97.10
2019-01-17T10:24:35.983Z,96.80
2019-01-17T10:27:50.038Z,96.20
2019-01-17T10:30:31.204Z,96.70
2019-01-17T10:33:24.166Z,96.50
2019-01-17T10:36:31.028Z,97.10
2019-01-17T10:39:53.323Z,96.90
2019-01-17T10:42:44.071Z,96.70
2019-01-17T10:45:48.210Z,97.00
2019-01-17T10:48:44.230Z,96.80
2019-01-17T10:51:50.459Z,97.30
2019-01-17T10:54:56.175Z,96.80
2019-01-17T10:57:57.969Z,95.10
2019-01-17T11:01:14.381Z,95.40
2019-01-17T11:04:19.351Z,95.60
2019-01-17T11:07:24.315Z,96.00
2019-01-17T11:10:11.636Z,95.50
2019-01-17T11:13:21.913Z,95.40
2019-01-17T11:16:16.455Z,95.30
2019-01-17T11:19:20.274Z,94.80
2019-01-17T11:22:20.998Z,95.10
2019-01-17T11:25:24.103Z,95.20
2019-01-17T11:28:18.179Z,95.40
2019-01-17T11:31:18.247Z,95.30
2019-01-17T11:34:17.508Z,95.50
2019-01-17T11:37:45.813Z,95.60
2019-01-17T11:40:58.586Z,94.90
2019-01-17T11:43:58.865Z,93.80
2019-01-17T11:47:00.215Z,93.60
2019-01-17T11:50:11.835Z,93.30
2019-01-17T11:53:43.104Z,93.20
2019-01-17T11:56:40.778Z,92.70
2019-01-17T11:59:17.060Z,92.80
2019-01-17T12:02:26.634Z,92.90
2019-01-17T12:04:54.802Z,92.40
2019-01-17T12:07:24.325Z,92.40
2019-01-17T12:09:53.788Z,91.70
2019-01-17T12:12:23.985Z,91.20
2019-01-17T12:14:56.395Z,90.60
2019-01-17T12:17:25.827Z,91.40
2019-01-17T12:19:55.577Z,92.40
2019-01-17T12:22:25.089Z,92.70
2019-01-17T12:24:54.822Z,92.20
2019-01-17T12:27:24.212Z,91.80
2019-01-17T12:29:53.665Z,91.50
2019-01-17T12:32:27.633Z,89.90
2019-01-17T12:34:56.789Z,82.30
2019-01-17T12:37:28.043Z,78.50
2019-01-17T12:39:57.281Z,71.30
2019-01-17T12:42:26.587Z,69.00
2019-01-17T12:44:55.924Z,70.20
2019-01-17T12:47:25.537Z,68.90
2019-01-17T12:49:54.977Z,65.20
2019-01-17T12:52:24.386Z,66.40
2019-01-17T12:54:54.022Z,67.90
2019-01-17T12:57:23.399Z,66.50
2019-01-17T12:59:52.774Z,71.00
2019-01-17T13:02:22.230Z,74.70
2019-01-17T13:04:51.566Z,76.30
2019-01-17T13:07:22.211Z,78.60
2019-01-17T13:09:52.149Z,81.90
2019-01-17T13:12:21.413Z,84.90
2019-01-17T13:14:50.786Z,86.80
2019-01-17T13:17:20.227Z,85.10
2019-01-17T13:19:49.832Z,85.50
2019-01-17T13:22:19.828Z,86.80
2019-01-17T13:24:50.460Z,87.90
2019-01-17T13:27:19.921Z,87.20
2019-01-17T13:29:49.316Z,87.30
2019-01-17T13:32:19.901Z,86.50
2019-01-17T13:34:49.223Z,85.60
2019-01-17T13:37:18.602Z,85.30
2019-01-17T13:39:47.945Z,85.70
2019-01-17T13:42:20.778Z,86.30
2019-01-17T13:44:48.359Z,87.10
2019-01-17T13:47:17.798Z,87.80
2019-01-17T13:49:47.205Z,87.80
2019-01-17T13:52:16.633Z,87.30
2019-01-17T13:54:46.048Z,86.70
2019-01-17T13:57:15.516Z,86.90
2019-01-17T13:59:45.026Z,86.50
2019-01-17T14:02:14.426Z,86.60
2019-01-17T14:04:43.994Z,85.90
2019-01-17T14:07:13.363Z,84.80
2019-01-17T14:09:43.225Z,84.20
2019-01-17T14:12:13.828Z,85.30
2019-01-17T14:14:43.240Z,85.00
2019-01-17T14:17:12.669Z,84.10
2019-01-17T14:19:42.892Z,84.20
2019-01-17T14:22:12.288Z,84.50
2019-01-17T14:24:41.773Z,84.50
2019-01-17T14:27:14.145Z,85.90
2019-01-17T14:29:42.493Z,86.40
2019-01-17T14:32:12.212Z,86.10
2019-01-17T14:34:41.637Z,85.40
2019-01-17T14:37:11.085Z,85.40
2019-01-17T14:39:40.329Z,85.40
2019-01-17T14:42:09.832Z,85.20
2019-01-17T14:44:39.233Z,85.90
2019-01-17T14:47:08.584Z,85.40
2019-01-17T14:49:38.211Z,86.10
2019-01-17T14:52:07.611Z,86.90
2019-01-17T14:54:37.000Z,86.90
2019-01-17T14:57:08.828Z,87.60
2019-01-17T14:59:38.224Z,87.50
2019-01-17T15:02:07.971Z,87.90
2019-01-17T15:04:37.294Z,87.50
2019-01-17T15:07:08.003Z,88.00
2019-01-17T15:09:37.481Z,88.10
2019-01-17T15:12:07.014Z,88.80
2019-01-17T15:14:36.450Z,88.80
2019-01-17T15:17:05.929Z,88.80
2019-01-17T15:19:35.314Z,89.00
2019-01-17T15:22:04.837Z,88.80
2019-01-17T15:24:34.427Z,88.60
2019-01-17T15:27:04.380Z,88.40
2019-01-17T15:29:33.931Z,88.20
2019-01-17T15:32:03.568Z,87.50
2019-01-17T15:34:33.026Z,87.70
2019-01-17T15:37:04.523Z,87.50
2019-01-17T15:39:35.069Z,87.50
2019-01-17T15:42:04.425Z,87.90
2019-01-17T15:44:33.805Z,87.90
2019-01-17T15:47:04.204Z,88.40
2019-01-17T15:49:33.911Z,88.20
2019-01-17T15:52:03.402Z,88.40
2019-01-17T15:54:32.748Z,88.40
2019-01-17T15:57:02.110Z,88.40
2019-01-17T15:59:31.792Z,88.40
2019-01-17T16:02:01.972Z,89.00
2019-01-17T16:04:31.354Z,89.00
2019-01-17T16:07:00.785Z,89.20
2019-01-17T16:09:30.192Z,89.20
2019-01-17T16:11:59.669Z,89.20
2019-01-17T16:14:28.951Z,89.10
2019-01-17T16:16:59.023Z,89.20
2019-01-17T16:19:29.346Z,89.90
2019-01-17T16:21:59.011Z,89.80
2019-01-17T16:24:28.409Z,89.80
2019-01-17T16:26:57.783Z,90.00
2019-01-17T16:29:28.085Z,90.00
2019-01-17T16:31:57.999Z,90.10
2019-01-17T16:34:27.448Z,90.30
2019-01-17T16:36:57.039Z,90.40
2019-01-17T16:39:26.651Z,90.40
2019-01-17T16:41:56.166Z,90.30
2019-01-17T16:44:26.006Z,90.50
2019-01-17T16:46:55.383Z,90.50
2019-01-17T16:49:24.752Z,90.60
2019-01-17T16:51:54.171Z,90.70
2019-01-17T16:54:24.535Z,90.90
2019-01-17T16:56:53.855Z,90.80
2019-01-17T16:59:23.176Z,90.80
2019-01-17T17:01:52.570Z,91.00
2019-01-17T17:04:22.062Z,90.80
2019-01-17T17:06:51.570Z,90.60
2019-01-17T17:09:21.133Z,90.50
2019-01-17T17:11:52.117Z,90.60
2019-01-17T17:14:22.286Z,90.60
2019-01-17T17:16:51.902Z,90.70
2019-01-17T17:19:21.311Z,90.80
2019-01-17T17:21:50.757Z,90.70
2019-01-17T17:24:20.193Z,90.80
2019-01-17T17:26:50.463Z,91.20
2019-01-17T17:29:20.755Z,91.80
2019-01-17T17:31:50.119Z,91.70
2019-01-17T17:34:20.083Z,91.90
2019-01-17T17:36:49.485Z,91.90
2019-01-17T17:39:18.795Z,92.10
2019-01-17T17:41:48.330Z,92.00
2019-01-17T17:44:19.348Z,92.20
2019-01-17T17:46:48.722Z,92.50
2019-01-17T17:49:18.949Z,92.50
2019-01-17T17:51:48.340Z,92.70
2019-01-17T17:54:17.776Z,92.80
2019-01-17T17:56:49.118Z,92.90
2019-01-17T17:59:18.506Z,93.00
2019-01-17T18:01:53.846Z,93.20
2019-01-17T18:04:23.131Z,93.20
2019-01-17T18:06:52.684Z,93.10
2019-01-17T18:09:21.962Z,93.10
2019-01-17T18:11:51.921Z,93.10
2019-01-17T18:14:21.909Z,92.90
2019-01-17T18:16:52.344Z,92.70
2019-01-17T18:19:21.990Z,92.80
2019-01-17T18:21:51.555Z,92.40
2019-01-17T18:24:22.014Z,92.40
2019-01-17T18:26:51.520Z,92.60
2019-01-17T18:29:22.977Z,92.80
2019-01-17T18:31:52.336Z,92.90
2019-01-17T18:34:23.870Z,93.00
2019-01-17T18:36:53.394Z,93.20
2019-01-17T18:39:24.370Z,93.40
2019-01-17T18:41:53.901Z,93.60
2019-01-17T18:44:23.715Z,93.70
2019-01-17T18:46:53.846Z,93.80
2019-01-17T18:49:23.383Z,93.80
2019-01-17T18:51:52.826Z,93.80
2019-01-17T18:54:22.246Z,93.70
2019-01-17T18:56:52.325Z,93.60
2019-01-17T18:59:21.796Z,93.40
2019-01-17T19:01:51.303Z,93.40
2019-01-17T19:04:21.402Z,93.20
2019-01-17T19:06:50.857Z,93.20
2019-01-17T19:09:20.236Z,93.20
2019-01-17T19:11:50.102Z,93.00
2019-01-17T19:14:19.738Z,92.90
2019-01-17T19:16:49.587Z,92.80
2019-01-17T19:19:20.059Z,92.70
2019-01-17T19:21:49.762Z,92.40
2019-01-17T19:24:19.498Z,92.50
2019-01-17T19:26:49.775Z,92.40
2019-01-17T19:29:19.445Z,92.60
2019-01-17T19:31:48.954Z,92.50
2019-01-17T19:34:19.076Z,92.70
2019-01-17T19:36:48.672Z,92.90
2019-01-17T19:39:18.150Z,93.00
2019-01-17T19:41:49.031Z,93.20
2019-01-17T19:44:20.366Z,93.30
2019-01-17T19:46:50.939Z,93.50
2019-01-17T19:49:20.522Z,93.60
2019-01-17T19:51:49.981Z,93.70
2019-01-17T19:54:19.484Z,93.80
2019-01-17T19:56:49.153Z,93.90
2019-01-17T19:59:18.571Z,94.10
2019-01-17T20:01:48.324Z,94.20
2019-01-17T20:04:17.838Z,94.30
2019-01-17T20:06:47.345Z,94.40
2019-01-17T20:09:17.520Z,94.50
2019-01-17T20:11:46.947Z,94.60
2019-01-17T20:14:16.410Z,94.70
2019-01-17T20:16:46.098Z,94.60
2019-01-17T20:19:15.583Z,94.60
2019-01-17T20:21:45.060Z,94.50
2019-01-17T20:24:14.862Z,94.40
2019-01-17T20:26:44.390Z,94.30
2019-01-17T20:29:13.937Z,94.40
2019-01-17T20:31:43.488Z,94.30
2019-01-17T20:34:13.040Z,94.00
2019-01-17T20:36:44.197Z,93.90
2019-01-17T20:39:13.700Z,93.70
2019-01-17T20:41:43.149Z,93.80
2019-01-17T20:44:12.649Z,93.90
2019-01-17T20:46:42.235Z,94.00
2019-01-17T20:49:11.680Z,94.00
2019-01-17T20:51:41.246Z,94.10
2019-01-17T20:54:10.738Z,94.00
2019-01-17T20:56:40.344Z,93.90
2019-01-17T20:59:10.071Z,93.90
2019-01-17T21:02:00.357Z,94.00
2019-01-17T21:04:30.136Z,93.80
2019-01-17T21:07:05.615Z,93.80
2019-01-17T21:09:32.342Z,93.70
2019-01-17T21:12:01.834Z,93.70
2019-01-17T21:14:31.324Z,93.80
2019-01-17T21:17:01.173Z,94.10
2019-01-17T21:19:30.883Z,94.40
2019-01-17T21:22:01.782Z,94.60
2019-01-17T21:24:31.239Z,95.00
2019-01-17T21:27:01.818Z,95.40
2019-01-17T21:29:31.388Z,95.70
2019-01-17T21:32:00.965Z,96.00
2019-01-17T21:34:30.490Z,96.10
2019-01-17T21:37:00.050Z,96.50
2019-01-17T21:39:29.502Z,96.60
2019-01-17T21:41:59.096Z,96.50
2019-01-17T21:44:28.855Z,96.40
2019-01-17T21:46:58.301Z,96.20
2019-01-17T21:49:27.887Z,96.10
2019-01-17T21:51:57.462Z,96.20
2019-01-17T21:54:27.520Z,95.50
2019-01-17T21:56:57.197Z,95.30
2019-01-17T21:59:26.646Z,95.50
2019-01-17T22:01:57.462Z,95.50
2019-01-17T22:04:27.026Z,95.40
2019-01-17T22:06:56.802Z,95.30
2019-01-17T22:09:26.319Z,95.50
2019-01-17T22:11:55.828Z,95.40
2019-01-17T22:14:25.304Z,95.30
2019-01-17T22:16:54.848Z,95.10
2019-01-17T22:19:25.214Z,95.10
2019-01-17T22:21:55.029Z,95.00
2019-01-17T22:24:24.567Z,95.00
2019-01-17T22:26:53.983Z,95.00
2019-01-17T22:29:23.582Z,95.10
2019-01-17T22:31:53.043Z,95.50
2019-01-17T22:34:23.777Z,95.20
2019-01-17T22:36:53.288Z,95.40
2019-01-17T22:39:23.634Z,95.30
2019-01-17T22:41:54.647Z,95.40
2019-01-17T22:44:24.478Z,95.40
2019-01-17T22:46:53.948Z,95.50
2019-01-17T22:49:23.383Z,95.70
2019-01-17T22:51:52.913Z,95.80
2019-01-17T22:54:22.721Z,95.80
2019-01-17T22:56:52.458Z,95.80
2019-01-17T22:59:21.931Z,95.80
2019-01-17T23:01:51.658Z,95.80
2019-01-17T23:04:23.123Z,96.00
2019-01-17T23:06:52.686Z,96.20
2019-01-17T23:09:22.106Z,96.30
2019-01-17T23:11:51.890Z,96.40
2019-01-17T23:14:21.562Z,96.50
2019-01-17T23:16:51.509Z,96.70
2019-01-17T23:19:20.940Z,96.90
2019-01-17T23:21:50.830Z,96.90
2019-01-17T23:24:20.515Z,97.20
2019-01-17T23:26:50.031Z,97.30
2019-01-17T23:29:19.490Z,97.20
2019-01-17T23:31:49.810Z,97.10
2019-01-17T23:34:19.514Z,96.90
2019-01-17T23:36:49.070Z,96.80
2019-01-17T23:39:18.531Z,96.80
2019-01-17T23:41:47.901Z,96.70
2019-01-17T23:44:17.354Z,96.70
2019-01-17T23:46:47.105Z,96.60
2019-01-17T23:49:16.529Z,96.50
2019-01-17T23:51:46.022Z,96.60
2019-01-17T23:54:15.425Z,96.50
2019-01-17T23:56:44.858Z,96.40
2019-01-17T23:59:15.053Z,96.40
